createdAt,value
2022-12-04T00:01:28.359Z,33.50
2022-12-04T00:04:00.652Z,34.55
2022-12-04T00:06:28.946Z,34.42
2022-12-04T00:08:56.385Z,34.92
2022-12-04T00:11:27.088Z,32.22
2022-12-04T00:13:54.543Z,34.05
2022-12-04T00:16:26.526Z,34.97
2022-12-04T00:18:54.761Z,34.38
2022-12-04T00:21:24.604Z,36.45
2022-12-04T00:23:52.341Z,37.33
2022-12-04T00:26:23.991Z,35.13
2022-12-04T00:28:51.523Z,32.47
2022-12-04T00:31:25.681Z,35.67
2022-12-04T00:33:53.244Z,33.63
2022-12-04T00:36:24.170Z,33.80
2022-12-04T00:38:51.841Z,34.25
2022-12-04T00:41:23.437Z,33.40
2022-12-04T00:43:51.123Z,33.90
2022-12-04T00:46:18.500Z,32.10
2022-12-04T00:48:46.361Z,35.78
2022-12-04T00:51:23.119Z,33.17
2022-12-04T00:53:52.712Z,33.33
2022-12-04T00:56:24.150Z,34.50
2022-12-04T00:58:57.676Z,34.47
2022-12-04T01:01:26.209Z,35.92
2022-12-04T01:03:55.461Z,31.70
2022-12-04T01:06:26.611Z,35.50
2022-12-04T01:08:56.409Z,31.88
2022-12-04T01:11:25.864Z,32.80
2022-12-04T01:13:53.519Z,34.92
2022-12-04T01:16:26.558Z,33.25
2022-12-04T01:18:53.941Z,33.67
2022-12-04T01:21:21.150Z,31.92
2022-12-04T01:23:48.423Z,34.17
2022-12-04T01:26:15.719Z,34.22
2022-12-04T01:28:42.874Z,34.38
2022-12-04T01:31:22.089Z,34.42
2022-12-04T01:33:50.862Z,33.03
2022-12-04T01:36:25.713Z,34.13
2022-12-04T01:38:53.096Z,31.00
2022-12-04T01:41:27.513Z,30.42
2022-12-04T01:44:11.614Z,31.48
2022-12-04T01:46:44.489Z,32.25
2022-12-04T01:49:26.118Z,32.00
2022-12-04T01:52:00.432Z,30.02
2022-12-04T01:54:35.999Z,30.25
2022-12-04T01:57:22.464Z,28.38
2022-12-04T01:59:59.820Z,30.23
2022-12-04T02:02:33.845Z,29.05
2022-12-04T02:05:03.785Z,27.30
2022-12-04T02:07:31.784Z,28.73
2022-12-04T02:10:03.803Z,29.58
2022-12-04T02:13:18.111Z,29.45
2022-12-04T02:16:08.600Z,30.70
2022-12-04T02:19:36.293Z,29.73
2022-12-04T02:22:15.171Z,30.52
2022-12-04T02:24:53.411Z,27.85
2022-12-04T02:27:39.219Z,29.42
2022-12-04T02:30:12.215Z,29.92
2022-12-04T02:33:18.722Z,28.48
2022-12-04T02:35:56.344Z,27.35
2022-12-04T02:38:38.155Z,30.08
2022-12-04T02:41:24.615Z,28.55
2022-12-04T02:43:58.117Z,28.17
2022-12-04T02:46:35.604Z,28.52
2022-12-04T02:49:07.769Z,30.50
2022-12-04T02:51:40.322Z,31.73
2022-12-04T02:54:31.347Z,31.65
2022-12-04T02:57:00.381Z,32.72
2022-12-04T02:59:35.957Z,33.50
2022-12-04T03:02:22.772Z,33.33
2022-12-04T03:04:51.185Z,31.45
2022-12-04T03:07:25.795Z,32.05
2022-12-04T03:09:58.940Z,31.48
2022-12-04T03:12:30.545Z,33.03
2022-12-04T03:15:04.992Z,31.77
2022-12-04T03:17:43.470Z,26.42
2022-12-04T03:20:14.823Z,25.67
2022-12-04T03:22:47.582Z,25.40
2022-12-04T03:25:14.748Z,21.65
2022-12-04T03:28:17.472Z,24.52
2022-12-04T03:30:54.611Z,24.63
2022-12-04T03:33:30.295Z,24.90
2022-12-04T03:36:12.905Z,23.38
2022-12-04T03:38:54.775Z,23.85
2022-12-04T03:41:34.219Z,23.52
2022-12-04T03:44:07.131Z,24.33
2022-12-04T03:46:52.903Z,23.80
2022-12-04T03:49:32.205Z,24.00
2022-12-04T03:52:16.472Z,22.83
2022-12-04T03:54:50.717Z,21.75
2022-12-04T04:00:21.456Z,16.90
2022-12-04T04:02:58.774Z,16.02
2022-12-04T04:05:29.282Z,15.55
2022-12-04T04:08:21.405Z,16.70
2022-12-04T04:10:51.202Z,13.80
2022-12-04T04:13:41.666Z,13.25
2022-12-04T04:16:30.752Z,12.32
2022-12-04T04:19:18.708Z,11.40
2022-12-04T04:22:07.538Z,11.60
2022-12-04T04:24:42.535Z,10.73
2022-12-04T04:27:09.756Z,9.88
2022-12-04T04:29:38.273Z,11.20
2022-12-04T04:32:39.099Z,9.75
2022-12-04T04:35:22.339Z,10.02
2022-12-04T04:38:21.923Z,9.27
2022-12-04T04:41:10.101Z,9.35
2022-12-04T04:43:50.136Z,8.80
2022-12-04T04:46:25.598Z,9.05
2022-12-04T04:48:58.221Z,8.98
2022-12-04T04:51:28.375Z,9.18
2022-12-04T04:53:58.778Z,8.73
2022-12-04T04:56:27.190Z,9.35
2022-12-04T04:58:54.299Z,8.48
2022-12-04T05:01:26.523Z,9.90
2022-12-04T05:03:53.614Z,9.05
2022-12-04T05:06:20.709Z,8.77
2022-12-04T05:08:51.169Z,9.55
2022-12-04T05:11:18.319Z,8.77
2022-12-04T05:13:45.420Z,8.82
2022-12-04T05:16:15.716Z,10.25
2022-12-04T05:19:03.315Z,10.57
2022-12-04T05:21:31.013Z,9.52
2022-12-04T05:23:58.147Z,9.43
2022-12-04T05:26:25.258Z,11.65
2022-12-04T05:28:52.301Z,11.77
2022-12-04T05:31:20.040Z,8.68
2022-12-04T05:33:47.234Z,7.68
2022-12-04T05:36:14.385Z,8.25
2022-12-04T05:38:41.603Z,6.55
2022-12-04T05:41:08.827Z,5.80
2022-12-04T05:43:36.527Z,6.57
2022-12-04T05:46:05.980Z,6.50
2022-12-04T05:48:34.869Z,6.00
2022-12-04T05:51:09.345Z,5.55
2022-12-04T05:53:37.750Z,4.90
2022-12-04T05:56:07.456Z,5.30
2022-12-04T05:58:39.798Z,4.82
2022-12-04T06:01:20.246Z,5.45
2022-12-04T06:03:47.324Z,4.38
2022-12-04T06:06:22.068Z,4.25
2022-12-04T06:08:57.522Z,5.10
2022-12-04T06:11:33.983Z,5.22
2022-12-04T06:14:03.203Z,4.55
2022-12-04T06:16:35.064Z,4.97
2022-12-04T06:19:09.242Z,4.55
2022-12-04T06:21:39.894Z,4.88
2022-12-04T06:24:10.420Z,4.05
2022-12-04T06:26:47.591Z,4.85
2022-12-04T06:29:24.645Z,5.20
2022-12-04T06:31:52.216Z,4.55
2022-12-04T06:34:19.799Z,5.38
2022-12-04T06:36:46.848Z,4.78
2022-12-04T06:39:18.512Z,5.50
2022-12-04T06:41:51.751Z,5.50
2022-12-04T06:44:19.946Z,5.35
2022-12-04T06:46:48.019Z,5.53
2022-12-04T06:49:16.163Z,6.20
2022-12-04T06:51:43.251Z,5.75
2022-12-04T06:54:10.963Z,5.60
2022-12-04T06:56:38.130Z,5.93
2022-12-04T06:59:05.850Z,6.40
2022-12-04T07:01:35.460Z,6.95
2022-12-04T07:04:04.521Z,6.45
2022-12-04T07:06:37.900Z,7.25
2022-12-04T07:09:13.385Z,7.38
2022-12-04T07:11:42.582Z,7.38
2022-12-04T07:14:10.663Z,7.82
2022-12-04T07:16:41.450Z,7.68
2022-12-04T07:19:12.853Z,7.05
2022-12-04T07:21:41.083Z,7.72
2022-12-04T07:24:08.615Z,7.43
2022-12-04T07:26:35.719Z,7.78
2022-12-04T07:29:02.943Z,7.50
2022-12-04T07:31:30.867Z,8.05
2022-12-04T07:33:59.443Z,7.35
2022-12-04T07:36:27.434Z,8.65
2022-12-04T07:38:57.659Z,7.47
2022-12-04T07:41:24.919Z,8.50
2022-12-04T07:43:52.016Z,7.82
2022-12-04T07:46:24.163Z,7.88
2022-12-04T07:48:52.390Z,7.50
2022-12-04T07:51:26.157Z,8.57
2022-12-04T07:53:55.724Z,7.88
2022-12-04T07:56:23.356Z,7.25
2022-12-04T07:58:52.345Z,8.07
2022-12-04T08:01:22.866Z,7.63
2022-12-04T08:03:55.080Z,8.45
2022-12-04T08:06:24.883Z,8.27
2022-12-04T08:08:52.948Z,8.65
2022-12-04T08:11:25.939Z,8.25
2022-12-04T08:13:59.610Z,8.38
2022-12-04T08:16:29.127Z,7.65
2022-12-04T08:18:56.440Z,7.97
2022-12-04T08:21:26.864Z,7.28
2022-12-04T08:23:56.331Z,7.30
2022-12-04T08:26:26.560Z,6.65
2022-12-04T08:28:55.571Z,7.20
2022-12-04T08:31:27.177Z,6.88
2022-12-04T08:33:57.372Z,6.53
2022-12-04T08:36:25.336Z,6.13
2022-12-04T08:38:52.968Z,6.35
2022-12-04T08:41:24.148Z,6.45
2022-12-04T08:43:54.951Z,6.45
2022-12-04T08:46:24.517Z,5.88
2022-12-04T08:48:51.805Z,5.75
2022-12-04T08:51:24.769Z,5.53
2022-12-04T08:54:02.365Z,5.80
2022-12-04T08:56:31.279Z,5.72
2022-12-04T08:59:00.443Z,6.18
2022-12-04T09:01:29.286Z,5.25
2022-12-04T09:03:57.031Z,4.57
2022-12-04T09:06:24.701Z,4.32
2022-12-04T09:08:54.576Z,4.22
2022-12-04T09:11:25.107Z,3.45
2022-12-04T09:13:52.420Z,3.42
2022-12-04T09:16:23.168Z,3.38
2022-12-04T09:18:50.682Z,2.97
2022-12-04T09:21:20.049Z,3.03
2022-12-04T09:23:47.410Z,2.60
2022-12-04T09:26:30.760Z,2.13
2022-12-04T09:29:01.316Z,2.33
2022-12-04T09:31:28.802Z,2.15
2022-12-04T09:33:59.053Z,1.90
2022-12-04T09:36:26.408Z,2.72
2022-12-04T09:38:55.021Z,2.50
2022-12-04T09:41:43.020Z,2.58
2022-12-04T09:44:28.493Z,2.80
2022-12-04T09:47:02.121Z,3.08
2022-12-04T09:49:36.930Z,3.50
2022-12-04T09:52:26.803Z,2.53
2022-12-04T09:54:56.445Z,2.13
2022-12-04T09:57:47.278Z,2.47
2022-12-04T10:00:18.807Z,2.92
2022-12-04T10:02:55.556Z,2.38
2022-12-04T10:05:52.816Z,3.30
2022-12-04T10:08:30.117Z,2.40
2022-12-04T10:11:02.804Z,2.40
2022-12-04T10:13:48.192Z,2.80
2022-12-04T10:16:26.223Z,2.28
2022-12-04T10:19:04.595Z,2.88
2022-12-04T10:21:55.204Z,7.18
2022-12-04T10:24:45.381Z,6.28
2022-12-04T10:27:26.033Z,2.95
2022-12-04T10:29:58.826Z,5.28
2022-12-04T10:32:32.897Z,4.38
2022-12-04T10:35:29.503Z,3.35
2022-12-04T10:38:22.566Z,18.17
2022-12-04T10:41:13.177Z,3.85
2022-12-04T10:43:48.806Z,3.13
2022-12-04T10:46:23.482Z,2.75
2022-12-04T10:49:01.431Z,2.75
2022-12-04T10:51:41.796Z,3.20
2022-12-04T10:55:00.319Z,1.98
2022-12-04T10:57:39.805Z,2.15
2022-12-04T11:00:30.033Z,2.17
2022-12-04T11:03:01.283Z,2.08
2022-12-04T11:05:36.090Z,1.30
2022-12-04T11:08:05.795Z,1.70
2022-12-04T11:10:40.124Z,1.92
2022-12-04T11:13:17.254Z,1.60
2022-12-04T11:15:53.878Z,1.95
2022-12-04T11:18:24.266Z,1.38
2022-12-04T11:21:05.279Z,1.30
2022-12-04T11:23:42.167Z,2.10
2022-12-04T11:26:10.740Z,1.65
2022-12-04T11:28:42.153Z,1.67
2022-12-04T11:31:16.307Z,1.88
2022-12-04T11:33:48.063Z,1.75
2022-12-04T11:36:26.512Z,1.30
2022-12-04T11:39:15.788Z,1.02
2022-12-04T11:41:43.738Z,1.58
2022-12-04T11:44:27.536Z,0.98
2022-12-04T11:46:58.121Z,1.58
2022-12-04T11:49:27.108Z,1.42
2022-12-04T11:52:17.222Z,1.23
2022-12-04T11:55:12.611Z,1.13
2022-12-04T11:58:13.355Z,1.63
2022-12-04T12:01:05.168Z,1.55
2022-12-04T12:03:49.209Z,2.20
2022-12-04T12:06:36.025Z,3.00
2022-12-04T12:09:12.202Z,2.38
2022-12-04T12:12:08.115Z,3.20
2022-12-04T12:15:06.047Z,4.03
2022-12-04T12:17:48.019Z,3.15
2022-12-04T12:20:42.967Z,2.88
2022-12-04T12:26:15.626Z,2.90
2022-12-04T12:29:10.676Z,3.92
2022-12-04T12:32:28.578Z,3.38
2022-12-04T12:34:56.049Z,3.58
2022-12-04T12:37:28.165Z,3.45
2022-12-04T12:40:14.840Z,4.15
2022-12-04T12:43:01.513Z,3.85
2022-12-04T12:46:18.489Z,3.75
2022-12-04T12:49:02.944Z,4.00
2022-12-04T12:54:39.123Z,3.95
2022-12-04T12:57:27.134Z,4.07
2022-12-04T13:00:20.321Z,4.07
2022-12-04T13:03:03.714Z,4.47
2022-12-04T13:05:37.833Z,3.78
2022-12-04T13:08:15.950Z,4.22
2022-12-04T13:10:50.555Z,4.68
2022-12-04T13:13:26.830Z,5.05
2022-12-04T13:16:06.217Z,4.55
2022-12-04T13:19:08.663Z,5.00
2022-12-04T13:21:47.572Z,5.63
2022-12-04T13:25:08.067Z,4.50
2022-12-04T13:28:00.513Z,5.03
2022-12-04T13:30:51.112Z,5.03
2022-12-04T13:33:38.921Z,5.97
2022-12-04T13:36:19.383Z,5.25
2022-12-04T13:38:58.040Z,5.50
2022-12-04T13:41:26.900Z,6.05
2022-12-04T13:43:55.729Z,5.65
2022-12-04T13:46:34.238Z,5.88
2022-12-04T13:49:33.183Z,5.07
2022-12-04T13:52:03.957Z,5.90
2022-12-04T13:54:36.614Z,7.38
2022-12-04T13:57:15.839Z,6.32
2022-12-04T13:59:44.813Z,6.97
2022-12-04T14:02:35.456Z,7.53
2022-12-04T14:05:12.875Z,8.38
2022-12-04T14:08:04.315Z,8.95
2022-12-04T14:10:39.099Z,9.50
2022-12-04T14:13:19.738Z,9.40
2022-12-04T14:15:47.239Z,9.20
2022-12-04T14:18:14.266Z,9.50
2022-12-04T14:20:44.509Z,8.57
2022-12-04T14:23:26.190Z,8.90
2022-12-04T14:25:58.006Z,9.05
2022-12-04T14:28:42.251Z,9.20
2022-12-04T14:31:34.415Z,9.35
2022-12-04T14:34:17.864Z,10.50
2022-12-04T14:36:47.833Z,9.60
2022-12-04T14:39:41.759Z,10.20
2022-12-04T14:42:23.795Z,10.70
2022-12-04T14:45:04.198Z,10.90
2022-12-04T14:47:59.272Z,10.88
2022-12-04T14:51:03.568Z,10.73
2022-12-04T14:53:40.371Z,11.43
2022-12-04T14:56:20.452Z,10.13
2022-12-04T14:58:48.083Z,9.40
2022-12-04T15:01:29.499Z,9.15
2022-12-04T15:04:09.844Z,9.73
2022-12-04T15:06:40.199Z,9.15
2022-12-04T15:09:52.154Z,9.02
2022-12-04T15:12:35.284Z,11.38
2022-12-04T15:15:18.740Z,11.02
2022-12-04T15:18:10.254Z,13.43
2022-12-04T15:20:49.529Z,11.20
2022-12-04T15:23:28.804Z,9.63
2022-12-04T15:26:02.807Z,11.85
2022-12-04T15:28:36.111Z,11.18
2022-12-04T15:31:06.952Z,13.93
2022-12-04T15:33:37.611Z,12.00
2022-12-04T15:36:52.022Z,11.50
2022-12-04T15:39:26.864Z,11.57
2022-12-04T15:42:18.210Z,11.35
2022-12-04T15:45:01.923Z,11.55
2022-12-04T15:47:41.383Z,11.65
2022-12-04T15:50:23.977Z,10.77
2022-12-04T15:53:00.421Z,11.30
2022-12-04T15:55:33.483Z,12.80
2022-12-04T15:58:22.461Z,11.80
2022-12-04T16:01:04.631Z,10.27
2022-12-04T16:03:50.528Z,11.82
2022-12-04T16:06:32.186Z,11.30
2022-12-04T16:09:18.502Z,12.63
2022-12-04T16:11:48.202Z,11.70
2022-12-04T16:14:18.098Z,11.75
2022-12-04T16:16:49.663Z,12.00
2022-12-04T16:19:39.518Z,11.13
2022-12-04T16:22:27.001Z,13.65
2022-12-04T16:24:54.947Z,13.48
2022-12-04T16:27:24.879Z,13.13
2022-12-04T16:29:53.017Z,12.43
2022-12-04T16:32:27.460Z,14.07
2022-12-04T16:34:55.267Z,11.65
2022-12-04T16:37:23.649Z,14.20
2022-12-04T16:39:51.004Z,15.50
2022-12-04T16:42:28.286Z,17.50
2022-12-04T16:44:56.356Z,20.95
2022-12-04T16:47:23.926Z,18.23
2022-12-04T16:49:52.616Z,26.35
2022-12-04T16:52:20.581Z,30.92
2022-12-04T16:54:47.787Z,30.25
2022-12-04T16:57:14.876Z,32.30
2022-12-04T16:59:42.646Z,34.92
2022-12-04T17:02:27.379Z,40.65
2022-12-04T17:07:25.741Z,31.88
2022-12-04T17:09:52.842Z,21.88
2022-12-04T17:12:19.838Z,20.13
2022-12-04T17:14:47.002Z,21.33
2022-12-04T17:17:14.003Z,19.67
2022-12-04T17:19:41.120Z,19.45
2022-12-04T17:22:08.436Z,18.83
2022-12-04T17:24:37.815Z,16.92
2022-12-04T17:27:07.947Z,24.23
2022-12-04T17:29:35.171Z,31.05
2022-12-04T17:32:02.315Z,27.02
2022-12-04T17:34:29.390Z,22.88
2022-12-04T17:36:56.509Z,25.15
2022-12-04T17:39:23.718Z,23.33
2022-12-04T17:41:50.860Z,24.27
2022-12-04T17:44:17.924Z,24.58
2022-12-04T17:46:45.596Z,24.45
2022-12-04T17:49:12.900Z,22.25
2022-12-04T17:51:40.054Z,21.95
2022-12-04T17:54:08.707Z,22.42
2022-12-04T17:56:35.751Z,21.85
2022-12-04T17:59:03.003Z,23.90
2022-12-04T18:01:30.699Z,24.17
2022-12-04T18:04:02.075Z,22.88
2022-12-04T18:06:40.406Z,24.10
2022-12-04T18:09:10.909Z,24.48
2022-12-04T18:11:41.409Z,22.55
2022-12-04T18:14:15.481Z,22.60
2022-12-04T18:16:53.336Z,23.13
2022-12-04T18:19:24.138Z,22.13
2022-12-04T18:21:51.792Z,22.77
2022-12-04T18:24:19.023Z,23.38
2022-12-04T18:26:50.594Z,22.35
2022-12-04T18:29:23.971Z,22.45
2022-12-04T18:31:52.095Z,22.87
2022-12-04T18:34:20.742Z,23.58
2022-12-04T18:36:48.048Z,23.23
2022-12-04T18:39:18.971Z,21.48
2022-12-04T18:41:47.545Z,23.77
2022-12-04T18:44:15.668Z,22.65
2022-12-04T18:46:43.188Z,22.15
2022-12-04T18:49:11.860Z,23.98
2022-12-04T18:51:45.823Z,22.42
2022-12-04T18:54:23.134Z,24.02
2022-12-04T18:56:51.204Z,22.73
2022-12-04T18:59:24.922Z,23.27
2022-12-04T19:01:53.811Z,24.98
2022-12-04T19:04:24.092Z,24.48
2022-12-04T19:06:54.928Z,23.13
2022-12-04T19:09:47.055Z,22.88
2022-12-04T19:12:13.834Z,21.33
2022-12-04T19:14:40.918Z,24.70
2022-12-04T19:17:09.132Z,21.92
2022-12-04T19:19:36.355Z,21.75
2022-12-04T19:22:03.580Z,23.65
2022-12-04T19:24:30.837Z,29.45
2022-12-04T19:26:57.945Z,31.88
2022-12-04T19:29:25.002Z,34.45
2022-12-04T19:31:58.886Z,30.50
2022-12-04T19:34:27.006Z,29.40
2022-12-04T19:36:55.355Z,30.23
2022-12-04T19:39:23.549Z,29.90
2022-12-04T19:41:51.366Z,27.20
2022-12-04T19:44:50.398Z,26.52
2022-12-04T19:47:08.470Z,28.95
2022-12-04T19:49:36.266Z,25.70
2022-12-04T19:52:03.764Z,27.98
2022-12-04T19:54:31.167Z,27.67
2022-12-04T19:56:58.255Z,28.85
2022-12-04T19:59:25.625Z,30.85
2022-12-04T20:01:53.149Z,29.23
2022-12-04T20:04:20.445Z,26.52
2022-12-04T20:06:47.819Z,28.13
2022-12-04T20:09:20.302Z,25.70
2022-12-04T20:11:48.124Z,27.80
2022-12-04T20:14:15.264Z,34.17
2022-12-04T20:16:43.219Z,34.00
2022-12-04T20:19:15.215Z,32.80
2022-12-04T20:21:43.958Z,29.98
2022-12-04T20:24:14.650Z,33.58
2022-12-04T20:26:45.825Z,32.33
2022-12-04T20:29:16.298Z,32.65
2022-12-04T20:31:47.045Z,30.38
2022-12-04T20:34:19.205Z,30.10
2022-12-04T20:36:48.661Z,33.13
2022-12-04T20:39:18.136Z,31.52
2022-12-04T20:41:46.530Z,36.05
2022-12-04T20:44:17.676Z,33.10
2022-12-04T20:46:45.826Z,31.55
2022-12-04T20:49:21.088Z,31.88
2022-12-04T20:51:49.026Z,29.35
2022-12-04T20:54:19.421Z,32.22
2022-12-04T20:56:48.979Z,32.20
2022-12-04T20:59:18.289Z,32.92
2022-12-04T21:01:46.120Z,31.60
2022-12-04T21:04:13.448Z,30.83
2022-12-04T21:06:41.726Z,31.85
2022-12-04T21:09:19.880Z,31.63
2022-12-04T21:11:53.275Z,32.25
2022-12-04T21:14:50.632Z,32.40
2022-12-04T21:17:19.652Z,33.65
2022-12-04T21:19:50.020Z,33.47
2022-12-04T21:22:22.075Z,30.85
2022-12-04T21:24:49.144Z,34.38
2022-12-04T21:27:21.038Z,34.70
2022-12-04T21:29:49.518Z,32.67
2022-12-04T21:32:18.492Z,32.45
2022-12-04T21:34:45.629Z,30.65
2022-12-04T21:37:13.099Z,31.98
2022-12-04T21:39:41.968Z,32.80
2022-12-04T21:42:32.280Z,34.28
2022-12-04T21:45:01.427Z,34.22
2022-12-04T21:47:29.230Z,33.10
2022-12-04T21:49:56.836Z,32.85
2022-12-04T21:52:25.100Z,31.67
2022-12-04T21:54:54.244Z,32.05
2022-12-04T21:57:22.439Z,33.42
2022-12-04T21:59:52.360Z,31.48
2022-12-04T22:02:19.764Z,33.78
2022-12-04T22:04:47.650Z,35.15
2022-12-04T22:07:15.248Z,31.70
2022-12-04T22:09:42.544Z,31.85
2022-12-04T22:12:33.221Z,33.58
2022-12-04T22:14:56.732Z,32.42
2022-12-04T22:17:23.976Z,33.17
2022-12-04T22:19:51.025Z,32.65
2022-12-04T22:22:18.070Z,32.63
2022-12-04T22:24:45.102Z,32.95
2022-12-04T22:27:15.099Z,32.55
2022-12-04T22:29:50.203Z,32.30
2022-12-04T22:32:19.040Z,31.23
2022-12-04T22:34:50.611Z,31.92
2022-12-04T22:37:18.000Z,33.20
2022-12-04T22:39:45.060Z,33.03
2022-12-04T22:42:12.209Z,31.58
2022-12-04T22:44:39.649Z,32.42
2022-12-04T22:47:06.816Z,31.02
2022-12-04T22:49:34.006Z,33.30
2022-12-04T22:52:02.010Z,34.08
2022-12-04T22:54:29.087Z,35.42
2022-12-04T22:56:58.560Z,34.90
2022-12-04T22:59:25.625Z,33.28
2022-12-04T23:01:52.728Z,34.28
2022-12-04T23:04:19.973Z,34.47
2022-12-04T23:06:47.099Z,31.58
2022-12-04T23:09:16.833Z,33.60
2022-12-04T23:11:44.713Z,34.17
2022-12-04T23:14:14.935Z,34.05
2022-12-04T23:16:42.414Z,33.05
2022-12-04T23:19:13.497Z,33.17
2022-12-04T23:21:41.479Z,35.45
2022-12-04T23:24:09.683Z,34.72
2022-12-04T23:26:40.559Z,33.55
2022-12-04T23:29:29.539Z,34.08
2022-12-04T23:31:55.148Z,35.35
2022-12-04T23:34:22.229Z,33.83
2022-12-04T23:36:49.209Z,37.25
2022-12-04T23:39:16.370Z,35.78
2022-12-04T23:41:43.410Z,36.55
2022-12-04T23:44:10.434Z,35.85
2022-12-04T23:46:37.567Z,33.45
2022-12-04T23:49:05.011Z,35.08
2022-12-04T23:51:32.111Z,36.72
2022-12-04T23:53:59.317Z,36.22
2022-12-04T23:56:28.654Z,35.65
2022-12-04T23:58:58.307Z,37.67
